sensor_id;sensor_type;location;lat;lon;timestamp;P1;durP1;ratioP1;P2;durP2;ratioP2
74967;SDS011;63523;51.880;12.630;2024-03-06T00:01:30;16.17;;;6.72;;
74967;SDS011;63523;51.880;12.630;2024-03-06T00:03:56;18.58;;;6.70;;
74967;SDS011;63523;51.880;12.630;2024-03-06T00:06:21;18.97;;;7.40;;
74967;SDS011;63523;51.880;12.630;2024-03-06T00:08:46;18.77;;;6.80;;
74967;SDS011;63523;51.880;12.630;2024-03-06T00:11:11;18.63;;;7.20;;
74967;SDS011;63523;51.880;12.630;2024-03-06T00:13:37;18.20;;;7.33;;
74967;SDS011;63523;51.880;12.630;2024-03-06T00:16:02;18.27;;;6.90;;
74967;SDS011;63523;51.880;12.630;2024-03-06T00:18:27;14.93;;;6.33;;
74967;SDS011;63523;51.880;12.630;2024-03-06T00:20:53;20.40;;;7.37;;
74967;SDS011;63523;51.880;12.630;2024-03-06T00:23:18;15.77;;;6.50;;
74967;SDS011;63523;51.880;12.630;2024-03-06T00:25:43;18.67;;;7.10;;
74967;SDS011;63523;51.880;12.630;2024-03-06T00:28:09;17.97;;;6.90;;
74967;SDS011;63523;51.880;12.630;2024-03-06T00:30:34;18.63;;;6.87;;
74967;SDS011;63523;51.880;12.630;2024-03-06T00:32:59;19.33;;;7.07;;
74967;SDS011;63523;51.880;12.630;2024-03-06T00:35:25;18.70;;;7.20;;
74967;SDS011;63523;51.880;12.630;2024-03-06T00:37:51;21.05;;;7.63;;
74967;SDS011;63523;51.880;12.630;2024-03-06T00:40:16;18.17;;;7.70;;
74967;SDS011;63523;51.880;12.630;2024-03-06T00:42:42;18.70;;;7.17;;
74967;SDS011;63523;51.880;12.630;2024-03-06T00:45:07;17.60;;;7.07;;
74967;SDS011;63523;51.880;12.630;2024-03-06T00:47:33;17.45;;;6.65;;
74967;SDS011;63523;51.880;12.630;2024-03-06T00:49:59;19.83;;;7.05;;
74967;SDS011;63523;51.880;12.630;2024-03-06T00:52:25;20.97;;;6.93;;
74967;SDS011;63523;51.880;12.630;2024-03-06T00:54:50;19.83;;;7.43;;
74967;SDS011;63523;51.880;12.630;2024-03-06T00:57:15;16.03;;;6.60;;
74967;SDS011;63523;51.880;12.630;2024-03-06T00:59:40;18.20;;;7.53;;
74967;SDS011;63523;51.880;12.630;2024-03-06T01:02:06;17.90;;;7.50;;
74967;SDS011;63523;51.880;12.630;2024-03-06T01:04:31;17.27;;;7.10;;
74967;SDS011;63523;51.880;12.630;2024-03-06T01:06:56;22.37;;;7.80;;
74967;SDS011;63523;51.880;12.630;2024-03-06T01:09:23;19.98;;;7.38;;
74967;SDS011;63523;51.880;12.630;2024-03-06T01:11:48;21.55;;;7.82;;
74967;SDS011;63523;51.880;12.630;2024-03-06T01:14:14;20.67;;;7.60;;
74967;SDS011;63523;51.880;12.630;2024-03-06T01:16:39;21.23;;;7.90;;
74967;SDS011;63523;51.880;12.630;2024-03-06T01:19:04;21.67;;;8.10;;
74967;SDS011;63523;51.880;12.630;2024-03-06T01:21:29;21.07;;;7.43;;
74967;SDS011;63523;51.880;12.630;2024-03-06T01:23:55;19.63;;;7.33;;
74967;SDS011;63523;51.880;12.630;2024-03-06T01:26:20;19.60;;;7.53;;
74967;SDS011;63523;51.880;12.630;2024-03-06T01:28:45;20.13;;;7.40;;
74967;SDS011;63523;51.880;12.630;2024-03-06T01:31:11;18.87;;;7.17;;
74967;SDS011;63523;51.880;12.630;2024-03-06T01:33:36;17.50;;;7.23;;
74967;SDS011;63523;51.880;12.630;2024-03-06T01:36:01;20.03;;;7.57;;
74967;SDS011;63523;51.880;12.630;2024-03-06T01:38:27;19.80;;;7.00;;
74967;SDS011;63523;51.880;12.630;2024-03-06T01:40:52;23.05;;;7.50;;
74967;SDS011;63523;51.880;12.630;2024-03-06T01:43:18;19.90;;;7.73;;
74967;SDS011;63523;51.880;12.630;2024-03-06T01:45:45;19.10;;;6.78;;
74967;SDS011;63523;51.880;12.630;2024-03-06T01:48:12;17.20;;;6.95;;
74967;SDS011;63523;51.880;12.630;2024-03-06T01:50:37;18.03;;;6.47;;
74967;SDS011;63523;51.880;12.630;2024-03-06T01:53:02;17.93;;;6.83;;
74967;SDS011;63523;51.880;12.630;2024-03-06T01:55:28;24.00;;;7.47;;
74967;SDS011;63523;51.880;12.630;2024-03-06T01:57:53;19.07;;;6.80;;
74967;SDS011;63523;51.880;12.630;2024-03-06T02:00:19;17.13;;;6.30;;
74967;SDS011;63523;51.880;12.630;2024-03-06T02:02:46;23.67;;;7.57;;
74967;SDS011;63523;51.880;12.630;2024-03-06T02:05:11;17.07;;;6.67;;
74967;SDS011;63523;51.880;12.630;2024-03-06T02:07:38;16.92;;;6.53;;
74967;SDS011;63523;51.880;12.630;2024-03-06T02:10:05;15.95;;;6.03;;
74967;SDS011;63523;51.880;12.630;2024-03-06T02:12:31;23.17;;;6.70;;
74967;SDS011;63523;51.880;12.630;2024-03-06T02:14:58;18.92;;;6.78;;
74967;SDS011;63523;51.880;12.630;2024-03-06T02:17:23;17.53;;;6.53;;
74967;SDS011;63523;51.880;12.630;2024-03-06T02:19:50;16.50;;;7.13;;
74967;SDS011;63523;51.880;12.630;2024-03-06T02:22:15;18.97;;;7.60;;
74967;SDS011;63523;51.880;12.630;2024-03-06T02:24:42;20.48;;;7.88;;
74967;SDS011;63523;51.880;12.630;2024-03-06T02:27:10;21.73;;;8.23;;
74967;SDS011;63523;51.880;12.630;2024-03-06T02:29:35;20.07;;;7.80;;
74967;SDS011;63523;51.880;12.630;2024-03-06T02:32:00;20.27;;;6.87;;
74967;SDS011;63523;51.880;12.630;2024-03-06T02:34:27;20.27;;;7.50;;
74967;SDS011;63523;51.880;12.630;2024-03-06T02:36:53;19.75;;;7.28;;
74967;SDS011;63523;51.880;12.630;2024-03-06T02:39:19;17.20;;;7.27;;
74967;SDS011;63523;51.880;12.630;2024-03-06T02:41:44;17.63;;;7.27;;
74967;SDS011;63523;51.880;12.630;2024-03-06T02:44:09;17.73;;;6.63;;
74967;SDS011;63523;51.880;12.630;2024-03-06T02:46:35;19.47;;;6.60;;
74967;SDS011;63523;51.880;12.630;2024-03-06T02:49:00;20.40;;;7.57;;
74967;SDS011;63523;51.880;12.630;2024-03-06T02:51:26;22.53;;;7.10;;
74967;SDS011;63523;51.880;12.630;2024-03-06T02:53:51;21.07;;;7.47;;
74967;SDS011;63523;51.880;12.630;2024-03-06T02:56:18;16.52;;;6.97;;
74967;SDS011;63523;51.880;12.630;2024-03-06T02:58:44;20.35;;;7.20;;
74967;SDS011;63523;51.880;12.630;2024-03-06T03:01:10;19.10;;;7.50;;
74967;SDS011;63523;51.880;12.630;2024-03-06T03:03:35;20.40;;;7.45;;
74967;SDS011;63523;51.880;12.630;2024-03-06T03:06:01;18.80;;;7.27;;
74967;SDS011;63523;51.880;12.630;2024-03-06T03:08:26;18.88;;;6.95;;
74967;SDS011;63523;51.880;12.630;2024-03-06T03:10:52;18.57;;;7.17;;
74967;SDS011;63523;51.880;12.630;2024-03-06T03:13:17;15.73;;;6.50;;
74967;SDS011;63523;51.880;12.630;2024-03-06T03:15:42;20.87;;;7.23;;
74967;SDS011;63523;51.880;12.630;2024-03-06T03:18:08;18.30;;;7.00;;
74967;SDS011;63523;51.880;12.630;2024-03-06T03:20:33;19.97;;;7.23;;
74967;SDS011;63523;51.880;12.630;2024-03-06T03:22:59;21.57;;;7.70;;
74967;SDS011;63523;51.880;12.630;2024-03-06T03:25:26;19.35;;;7.00;;
74967;SDS011;63523;51.880;12.630;2024-03-06T03:27:51;18.30;;;7.20;;
74967;SDS011;63523;51.880;12.630;2024-03-06T03:30:17;17.97;;;6.70;;
74967;SDS011;63523;51.880;12.630;2024-03-06T03:32:45;18.98;;;7.07;;
74967;SDS011;63523;51.880;12.630;2024-03-06T03:35:10;20.80;;;7.20;;
74967;SDS011;63523;51.880;12.630;2024-03-06T03:37:36;17.63;;;7.07;;
74967;SDS011;63523;51.880;12.630;2024-03-06T03:40:01;19.27;;;7.30;;
74967;SDS011;63523;51.880;12.630;2024-03-06T03:42:27;19.63;;;6.80;;
74967;SDS011;63523;51.880;12.630;2024-03-06T03:44:53;18.13;;;7.27;;
74967;SDS011;63523;51.880;12.630;2024-03-06T03:47:18;16.73;;;6.53;;
74967;SDS011;63523;51.880;12.630;2024-03-06T03:49:43;16.57;;;6.60;;
74967;SDS011;63523;51.880;12.630;2024-03-06T03:52:08;18.37;;;6.87;;
74967;SDS011;63523;51.880;12.630;2024-03-06T03:54:34;20.67;;;6.93;;
74967;SDS011;63523;51.880;12.630;2024-03-06T03:57:00;20.25;;;7.25;;
74967;SDS011;63523;51.880;12.630;2024-03-06T03:59:25;21.13;;;7.40;;
74967;SDS011;63523;51.880;12.630;2024-03-06T04:01:50;20.87;;;6.77;;
74967;SDS011;63523;51.880;12.630;2024-03-06T04:04:16;21.60;;;6.93;;
74967;SDS011;63523;51.880;12.630;2024-03-06T04:06:41;20.17;;;7.33;;
74967;SDS011;63523;51.880;12.630;2024-03-06T04:09:06;18.17;;;7.30;;
74967;SDS011;63523;51.880;12.630;2024-03-06T04:11:34;20.03;;;7.43;;
74967;SDS011;63523;51.880;12.630;2024-03-06T04:14:02;20.55;;;7.25;;
74967;SDS011;63523;51.880;12.630;2024-03-06T04:16:27;22.77;;;7.83;;
74967;SDS011;63523;51.880;12.630;2024-03-06T04:18:52;19.90;;;7.47;;
74967;SDS011;63523;51.880;12.630;2024-03-06T04:21:17;20.27;;;7.60;;
74967;SDS011;63523;51.880;12.630;2024-03-06T04:23:43;19.63;;;7.57;;
74967;SDS011;63523;51.880;12.630;2024-03-06T04:26:08;21.98;;;7.78;;
74967;SDS011;63523;51.880;12.630;2024-03-06T04:28:34;22.03;;;8.40;;
74967;SDS011;63523;51.880;12.630;2024-03-06T04:30:59;23.67;;;8.17;;
74967;SDS011;63523;51.880;12.630;2024-03-06T04:33:24;21.97;;;8.53;;
74967;SDS011;63523;51.880;12.630;2024-03-06T04:35:50;21.13;;;7.77;;
74967;SDS011;63523;51.880;12.630;2024-03-06T04:38:15;21.77;;;8.10;;
74967;SDS011;63523;51.880;12.630;2024-03-06T04:40:40;21.90;;;7.77;;
74967;SDS011;63523;51.880;12.630;2024-03-06T04:43:06;21.05;;;7.75;;
74967;SDS011;63523;51.880;12.630;2024-03-06T04:45:32;22.10;;;7.67;;
74967;SDS011;63523;51.880;12.630;2024-03-06T04:47:57;22.73;;;7.90;;
74967;SDS011;63523;51.880;12.630;2024-03-06T04:50:23;22.93;;;7.57;;
74967;SDS011;63523;51.880;12.630;2024-03-06T04:52:49;19.40;;;7.57;;
74967;SDS011;63523;51.880;12.630;2024-03-06T04:55:14;20.00;;;7.37;;
74967;SDS011;63523;51.880;12.630;2024-03-06T04:57:41;23.50;;;8.30;;
74967;SDS011;63523;51.880;12.630;2024-03-06T05:00:08;20.52;;;7.43;;
74967;SDS011;63523;51.880;12.630;2024-03-06T05:02:35;21.67;;;8.23;;
74967;SDS011;63523;51.880;12.630;2024-03-06T05:05:01;22.52;;;7.70;;
74967;SDS011;63523;51.880;12.630;2024-03-06T05:07:30;23.17;;;7.97;;
74967;SDS011;63523;51.880;12.630;2024-03-06T05:09:57;20.00;;;8.07;;
74967;SDS011;63523;51.880;12.630;2024-03-06T05:12:23;20.10;;;7.28;;
74967;SDS011;63523;51.880;12.630;2024-03-06T05:14:49;20.70;;;7.07;;
74967;SDS011;63523;51.880;12.630;2024-03-06T05:17:15;20.75;;;7.25;;
74967;SDS011;63523;51.880;12.630;2024-03-06T05:19:40;18.90;;;7.03;;
74967;SDS011;63523;51.880;12.630;2024-03-06T05:22:06;22.00;;;7.30;;
74967;SDS011;63523;51.880;12.630;2024-03-06T05:24:31;19.53;;;6.80;;
74967;SDS011;63523;51.880;12.630;2024-03-06T05:26:56;16.83;;;6.57;;
74967;SDS011;63523;51.880;12.630;2024-03-06T05:29:21;18.90;;;6.90;;
74967;SDS011;63523;51.880;12.630;2024-03-06T05:31:46;16.87;;;6.57;;
74967;SDS011;63523;51.880;12.630;2024-03-06T05:34:12;18.80;;;7.40;;
74967;SDS011;63523;51.880;12.630;2024-03-06T05:36:37;18.27;;;6.90;;
74967;SDS011;63523;51.880;12.630;2024-03-06T05:39:02;20.93;;;7.00;;
74967;SDS011;63523;51.880;12.630;2024-03-06T05:41:32;28.65;;;13.27;;
74967;SDS011;63523;51.880;12.630;2024-03-06T05:43:57;23.00;;;8.57;;
74967;SDS011;63523;51.880;12.630;2024-03-06T05:46:23;21.13;;;7.83;;
74967;SDS011;63523;51.880;12.630;2024-03-06T05:48:48;22.48;;;7.60;;
74967;SDS011;63523;51.880;12.630;2024-03-06T05:51:15;22.93;;;7.67;;
74967;SDS011;63523;51.880;12.630;2024-03-06T05:53:40;21.83;;;7.90;;
74967;SDS011;63523;51.880;12.630;2024-03-06T05:56:07;24.13;;;7.82;;
74967;SDS011;63523;51.880;12.630;2024-03-06T05:58:32;21.48;;;7.75;;
74967;SDS011;63523;51.880;12.630;2024-03-06T06:00:59;25.08;;;8.30;;
74967;SDS011;63523;51.880;12.630;2024-03-06T06:03:25;22.35;;;7.47;;
74967;SDS011;63523;51.880;12.630;2024-03-06T06:05:50;21.60;;;7.40;;
74967;SDS011;63523;51.880;12.630;2024-03-06T06:08:15;22.87;;;8.43;;
74967;SDS011;63523;51.880;12.630;2024-03-06T06:10:40;19.93;;;7.87;;
74967;SDS011;63523;51.880;12.630;2024-03-06T06:13:06;21.03;;;7.93;;
74967;SDS011;63523;51.880;12.630;2024-03-06T06:15:31;18.13;;;7.13;;
74967;SDS011;63523;51.880;12.630;2024-03-06T06:17:56;25.13;;;8.13;;
74967;SDS011;63523;51.880;12.630;2024-03-06T06:20:22;21.30;;;7.53;;
74967;SDS011;63523;51.880;12.630;2024-03-06T06:22:47;29.45;;;8.15;;
74967;SDS011;63523;51.880;12.630;2024-03-06T06:25:12;26.43;;;9.30;;
74967;SDS011;63523;51.880;12.630;2024-03-06T06:27:38;24.60;;;9.03;;
74967;SDS011;63523;51.880;12.630;2024-03-06T06:30:04;27.10;;;9.33;;
74967;SDS011;63523;51.880;12.630;2024-03-06T06:32:30;25.15;;;8.90;;
74967;SDS011;63523;51.880;12.630;2024-03-06T06:34:55;25.30;;;8.73;;
74967;SDS011;63523;51.880;12.630;2024-03-06T06:37:21;21.50;;;8.15;;
74967;SDS011;63523;51.880;12.630;2024-03-06T06:39:46;20.43;;;7.50;;
74967;SDS011;63523;51.880;12.630;2024-03-06T06:42:11;20.97;;;7.13;;
74967;SDS011;63523;51.880;12.630;2024-03-06T06:44:37;22.25;;;8.48;;
74967;SDS011;63523;51.880;12.630;2024-03-06T06:47:02;19.00;;;7.20;;
74967;SDS011;63523;51.880;12.630;2024-03-06T06:49:27;20.23;;;7.87;;
74967;SDS011;63523;51.880;12.630;2024-03-06T06:51:53;19.83;;;7.83;;
74967;SDS011;63523;51.880;12.630;2024-03-06T06:54:18;19.57;;;7.87;;
74967;SDS011;63523;51.880;12.630;2024-03-06T06:56:44;20.77;;;8.13;;
74967;SDS011;63523;51.880;12.630;2024-03-06T06:59:09;25.00;;;9.10;;
74967;SDS011;63523;51.880;12.630;2024-03-06T07:01:34;22.77;;;8.20;;
74967;SDS011;63523;51.880;12.630;2024-03-06T07:04:00;25.77;;;10.07;;
74967;SDS011;63523;51.880;12.630;2024-03-06T07:06:26;25.70;;;9.20;;
74967;SDS011;63523;51.880;12.630;2024-03-06T07:08:51;23.73;;;9.13;;
74967;SDS011;63523;51.880;12.630;2024-03-06T07:11:16;24.67;;;8.73;;
74967;SDS011;63523;51.880;12.630;2024-03-06T07:13:43;24.23;;;9.32;;
74967;SDS011;63523;51.880;12.630;2024-03-06T07:16:08;27.20;;;10.10;;
74967;SDS011;63523;51.880;12.630;2024-03-06T07:18:34;26.13;;;9.73;;
74967;SDS011;63523;51.880;12.630;2024-03-06T07:21:00;24.77;;;9.50;;
74967;SDS011;63523;51.880;12.630;2024-03-06T07:23:25;25.07;;;9.27;;
74967;SDS011;63523;51.880;12.630;2024-03-06T07:25:50;23.60;;;9.30;;
74967;SDS011;63523;51.880;12.630;2024-03-06T07:28:15;24.57;;;9.37;;
74967;SDS011;63523;51.880;12.630;2024-03-06T07:30:41;22.93;;;8.97;;
74967;SDS011;63523;51.880;12.630;2024-03-06T07:33:06;27.50;;;9.50;;
74967;SDS011;63523;51.880;12.630;2024-03-06T07:35:32;23.63;;;8.98;;
74967;SDS011;63523;51.880;12.630;2024-03-06T07:37:57;22.83;;;9.20;;
74967;SDS011;63523;51.880;12.630;2024-03-06T07:40:23;29.77;;;9.83;;
74967;SDS011;63523;51.880;12.630;2024-03-06T07:42:48;25.90;;;9.93;;
74967;SDS011;63523;51.880;12.630;2024-03-06T07:45:13;25.98;;;10.23;;
74967;SDS011;63523;51.880;12.630;2024-03-06T07:47:39;27.03;;;10.07;;
74967;SDS011;63523;51.880;12.630;2024-03-06T07:50:06;26.50;;;10.05;;
74967;SDS011;63523;51.880;12.630;2024-03-06T07:52:32;26.95;;;10.55;;
74967;SDS011;63523;51.880;12.630;2024-03-06T07:54:57;30.27;;;11.77;;
74967;SDS011;63523;51.880;12.630;2024-03-06T07:57:23;27.47;;;9.97;;
74967;SDS011;63523;51.880;12.630;2024-03-06T07:59:48;36.83;;;11.93;;
74967;SDS011;63523;51.880;12.630;2024-03-06T08:02:14;30.60;;;10.60;;
74967;SDS011;63523;51.880;12.630;2024-03-06T08:04:39;30.47;;;10.57;;
74967;SDS011;63523;51.880;12.630;2024-03-06T08:07:05;28.47;;;11.17;;
74967;SDS011;63523;51.880;12.630;2024-03-06T08:09:30;26.60;;;10.50;;
74967;SDS011;63523;51.880;12.630;2024-03-06T08:11:56;28.75;;;11.90;;
74967;SDS011;63523;51.880;12.630;2024-03-06T08:14:21;28.50;;;10.30;;
74967;SDS011;63523;51.880;12.630;2024-03-06T08:16:47;31.50;;;10.90;;
74967;SDS011;63523;51.880;12.630;2024-03-06T08:19:12;30.27;;;10.50;;
74967;SDS011;63523;51.880;12.630;2024-03-06T08:21:37;28.50;;;10.53;;
74967;SDS011;63523;51.880;12.630;2024-03-06T08:24:03;31.60;;;11.07;;
74967;SDS011;63523;51.880;12.630;2024-03-06T08:26:28;31.17;;;10.88;;
74967;SDS011;63523;51.880;12.630;2024-03-06T08:28:53;24.40;;;10.47;;
74967;SDS011;63523;51.880;12.630;2024-03-06T08:31:19;28.37;;;11.30;;
74967;SDS011;63523;51.880;12.630;2024-03-06T08:33:46;27.83;;;10.50;;
74967;SDS011;63523;51.880;12.630;2024-03-06T08:36:11;24.60;;;9.67;;
74967;SDS011;63523;51.880;12.630;2024-03-06T08:38:38;31.40;;;11.03;;
74967;SDS011;63523;51.880;12.630;2024-03-06T08:41:05;30.30;;;10.85;;
74967;SDS011;63523;51.880;12.630;2024-03-06T08:43:31;27.13;;;10.43;;
74967;SDS011;63523;51.880;12.630;2024-03-06T08:45:56;31.57;;;11.37;;
74967;SDS011;63523;51.880;12.630;2024-03-06T08:48:22;28.13;;;10.73;;
74967;SDS011;63523;51.880;12.630;2024-03-06T08:50:47;24.67;;;10.23;;
74967;SDS011;63523;51.880;12.630;2024-03-06T08:53:12;32.73;;;11.23;;
74967;SDS011;63523;51.880;12.630;2024-03-06T08:55:39;24.52;;;10.18;;
74967;SDS011;63523;51.880;12.630;2024-03-06T08:58:04;28.27;;;10.23;;
74967;SDS011;63523;51.880;12.630;2024-03-06T09:00:29;25.93;;;10.60;;
74967;SDS011;63523;51.880;12.630;2024-03-06T09:02:54;24.50;;;9.50;;
74967;SDS011;63523;51.880;12.630;2024-03-06T09:05:20;24.23;;;9.67;;
74967;SDS011;63523;51.880;12.630;2024-03-06T09:07:46;24.65;;;10.07;;
74967;SDS011;63523;51.880;12.630;2024-03-06T09:10:12;25.00;;;9.67;;
74967;SDS011;63523;51.880;12.630;2024-03-06T09:12:38;25.35;;;9.15;;
74967;SDS011;63523;51.880;12.630;2024-03-06T09:15:04;24.10;;;9.10;;
74967;SDS011;63523;51.880;12.630;2024-03-06T09:17:29;22.08;;;8.13;;
74967;SDS011;63523;51.880;12.630;2024-03-06T09:19:55;20.80;;;7.67;;
74967;SDS011;63523;51.880;12.630;2024-03-06T09:22:21;20.70;;;8.75;;
74967;SDS011;63523;51.880;12.630;2024-03-06T09:24:46;21.03;;;7.60;;
74967;SDS011;63523;51.880;12.630;2024-03-06T09:27:13;21.88;;;8.80;;
74967;SDS011;63523;51.880;12.630;2024-03-06T09:29:39;19.98;;;7.97;;
74967;SDS011;63523;51.880;12.630;2024-03-06T09:32:04;15.73;;;6.73;;
74967;SDS011;63523;51.880;12.630;2024-03-06T09:34:29;28.43;;;7.53;;
74967;SDS011;63523;51.880;12.630;2024-03-06T09:36:55;18.97;;;7.83;;
74967;SDS011;63523;51.880;12.630;2024-03-06T09:39:20;18.77;;;7.37;;
74967;SDS011;63523;51.880;12.630;2024-03-06T09:41:47;17.92;;;7.35;;
74967;SDS011;63523;51.880;12.630;2024-03-06T09:44:13;15.40;;;6.23;;
74967;SDS011;63523;51.880;12.630;2024-03-06T09:46:43;18.27;;;5.78;;
74967;SDS011;63523;51.880;12.630;2024-03-06T09:49:09;17.05;;;6.90;;
74967;SDS011;63523;51.880;12.630;2024-03-06T09:51:37;18.88;;;7.10;;
74967;SDS011;63523;51.880;12.630;2024-03-06T09:54:05;18.25;;;6.88;;
74967;SDS011;63523;51.880;12.630;2024-03-06T09:56:34;17.80;;;6.93;;
74967;SDS011;63523;51.880;12.630;2024-03-06T09:58:59;16.73;;;7.13;;
74967;SDS011;63523;51.880;12.630;2024-03-06T10:01:26;14.17;;;5.80;;
74967;SDS011;63523;51.880;12.630;2024-03-06T10:03:53;15.02;;;6.10;;
74967;SDS011;63523;51.880;12.630;2024-03-06T10:06:18;14.80;;;6.17;;
74967;SDS011;63523;51.880;12.630;2024-03-06T10:08:44;17.10;;;6.75;;
74967;SDS011;63523;51.880;12.630;2024-03-06T10:11:11;15.23;;;6.15;;
74967;SDS011;63523;51.880;12.630;2024-03-06T10:13:36;15.80;;;6.33;;
74967;SDS011;63523;51.880;12.630;2024-03-06T10:16:03;12.63;;;5.67;;
74967;SDS011;63523;51.880;12.630;2024-03-06T10:18:33;13.32;;;5.28;;
74967;SDS011;63523;51.880;12.630;2024-03-06T10:20:58;16.43;;;6.87;;
74967;SDS011;63523;51.880;12.630;2024-03-06T10:23:23;14.27;;;5.57;;
74967;SDS011;63523;51.880;12.630;2024-03-06T10:25:50;17.10;;;5.87;;
74967;SDS011;63523;51.880;12.630;2024-03-06T10:28:17;12.40;;;4.75;;
74967;SDS011;63523;51.880;12.630;2024-03-06T10:30:43;13.57;;;4.93;;
74967;SDS011;63523;51.880;12.630;2024-03-06T10:33:10;14.55;;;5.90;;
74967;SDS011;63523;51.880;12.630;2024-03-06T10:35:36;14.73;;;5.65;;
74967;SDS011;63523;51.880;12.630;2024-03-06T10:38:05;15.67;;;5.40;;
74967;SDS011;63523;51.880;12.630;2024-03-06T10:40:32;13.40;;;5.78;;
74967;SDS011;63523;51.880;12.630;2024-03-06T10:42:59;12.80;;;5.88;;
74967;SDS011;63523;51.880;12.630;2024-03-06T10:45:29;12.13;;;5.32;;
74967;SDS011;63523;51.880;12.630;2024-03-06T10:48:05;11.82;;;4.70;;
74967;SDS011;63523;51.880;12.630;2024-03-06T10:50:32;13.30;;;4.77;;
74967;SDS011;63523;51.880;12.630;2024-03-06T10:52:58;11.70;;;4.63;;
74967;SDS011;63523;51.880;12.630;2024-03-06T10:55:24;12.55;;;4.45;;
74967;SDS011;63523;51.880;12.630;2024-03-06T10:57:53;10.93;;;4.57;;
74967;SDS011;63523;51.880;12.630;2024-03-06T11:00:21;11.63;;;4.72;;
74967;SDS011;63523;51.880;12.630;2024-03-06T11:02:47;12.53;;;4.77;;
74967;SDS011;63523;51.880;12.630;2024-03-06T11:05:14;11.43;;;4.38;;
74967;SDS011;63523;51.880;12.630;2024-03-06T11:07:40;11.40;;;3.97;;
74967;SDS011;63523;51.880;12.630;2024-03-06T11:10:06;10.00;;;4.37;;
74967;SDS011;63523;51.880;12.630;2024-03-06T11:12:36;12.55;;;4.32;;
74967;SDS011;63523;51.880;12.630;2024-03-06T11:15:14;10.27;;;4.30;;
74967;SDS011;63523;51.880;12.630;2024-03-06T11:17:43;10.82;;;4.53;;
74967;SDS011;63523;51.880;12.630;2024-03-06T11:20:09;11.13;;;4.47;;
74967;SDS011;63523;51.880;12.630;2024-03-06T11:28:16;12.43;;;5.30;;
74967;SDS011;63523;51.880;12.630;2024-03-06T11:30:46;14.77;;;5.00;;
74967;SDS011;63523;51.880;12.630;2024-03-06T11:33:20;12.88;;;4.95;;
74967;SDS011;63523;51.880;12.630;2024-03-06T11:41:27;11.25;;;4.10;;
74967;SDS011;63523;51.880;12.630;2024-03-06T11:43:54;12.43;;;4.88;;
74967;SDS011;63523;51.880;12.630;2024-03-06T11:46:21;13.47;;;4.90;;
74967;SDS011;63523;51.880;12.630;2024-03-06T11:48:51;12.38;;;5.20;;
74967;SDS011;63523;51.880;12.630;2024-03-06T11:51:20;12.77;;;5.07;;
74967;SDS011;63523;51.880;12.630;2024-03-06T11:53:51;12.93;;;4.80;;
74967;SDS011;63523;51.880;12.630;2024-03-06T11:56:18;10.93;;;4.78;;
74967;SDS011;63523;51.880;12.630;2024-03-06T11:58:45;12.37;;;4.70;;
74967;SDS011;63523;51.880;12.630;2024-03-06T12:01:11;17.23;;;5.43;;
74967;SDS011;63523;51.880;12.630;2024-03-06T12:03:37;13.30;;;5.40;;
74967;SDS011;63523;51.880;12.630;2024-03-06T12:06:02;14.68;;;5.55;;
74967;SDS011;63523;51.880;12.630;2024-03-06T12:08:28;13.20;;;5.33;;
74967;SDS011;63523;51.880;12.630;2024-03-06T12:10:53;12.17;;;4.93;;
74967;SDS011;63523;51.880;12.630;2024-03-06T12:13:20;11.73;;;4.80;;
74967;SDS011;63523;51.880;12.630;2024-03-06T12:15:46;12.70;;;4.63;;
74967;SDS011;63523;51.880;12.630;2024-03-06T12:18:11;13.35;;;4.57;;
74967;SDS011;63523;51.880;12.630;2024-03-06T12:20:40;13.57;;;4.97;;
74967;SDS011;63523;51.880;12.630;2024-03-06T12:23:06;11.75;;;4.97;;
74967;SDS011;63523;51.880;12.630;2024-03-06T12:25:32;11.90;;;4.97;;
74967;SDS011;63523;51.880;12.630;2024-03-06T12:28:05;11.87;;;4.50;;
74967;SDS011;63523;51.880;12.630;2024-03-06T12:30:38;10.73;;;4.20;;
74967;SDS011;63523;51.880;12.630;2024-03-06T12:33:07;11.52;;;4.47;;
74967;SDS011;63523;51.880;12.630;2024-03-06T12:35:33;12.27;;;4.90;;
74967;SDS011;63523;51.880;12.630;2024-03-06T12:37:58;11.93;;;4.53;;
74967;SDS011;63523;51.880;12.630;2024-03-06T12:40:24;10.80;;;4.50;;
74967;SDS011;63523;51.880;12.630;2024-03-06T12:42:50;11.82;;;5.15;;
74967;SDS011;63523;51.880;12.630;2024-03-06T12:45:17;9.18;;;3.92;;
74967;SDS011;63523;51.880;12.630;2024-03-06T12:47:43;9.43;;;3.67;;
74967;SDS011;63523;51.880;12.630;2024-03-06T12:50:10;12.00;;;3.97;;
74967;SDS011;63523;51.880;12.630;2024-03-06T12:52:39;10.23;;;3.78;;
74967;SDS011;63523;51.880;12.630;2024-03-06T12:55:06;10.55;;;3.70;;
74967;SDS011;63523;51.880;12.630;2024-03-06T12:57:32;10.02;;;3.75;;
74967;SDS011;63523;51.880;12.630;2024-03-06T12:59:57;9.00;;;3.70;;
74967;SDS011;63523;51.880;12.630;2024-03-06T13:02:23;8.83;;;3.67;;
74967;SDS011;63523;51.880;12.630;2024-03-06T13:04:49;10.45;;;3.30;;
74967;SDS011;63523;51.880;12.630;2024-03-06T13:07:14;8.47;;;3.00;;
74967;SDS011;63523;51.880;12.630;2024-03-06T13:09:39;7.50;;;2.40;;
74967;SDS011;63523;51.880;12.630;2024-03-06T13:12:05;7.67;;;2.67;;
74967;SDS011;63523;51.880;12.630;2024-03-06T13:14:31;9.82;;;3.17;;
74967;SDS011;63523;51.880;12.630;2024-03-06T13:16:57;7.85;;;3.05;;
74967;SDS011;63523;51.880;12.630;2024-03-06T13:19:23;9.03;;;3.10;;
74967;SDS011;63523;51.880;12.630;2024-03-06T13:21:48;8.40;;;3.23;;
74967;SDS011;63523;51.880;12.630;2024-03-06T13:24:13;7.90;;;2.73;;
74967;SDS011;63523;51.880;12.630;2024-03-06T13:26:39;9.30;;;3.63;;
74967;SDS011;63523;51.880;12.630;2024-03-06T13:29:05;7.97;;;2.97;;
74967;SDS011;63523;51.880;12.630;2024-03-06T13:31:31;10.15;;;3.08;;
74967;SDS011;63523;51.880;12.630;2024-03-06T13:33:58;7.63;;;3.10;;
74967;SDS011;63523;51.880;12.630;2024-03-06T13:36:24;9.73;;;2.85;;
74967;SDS011;63523;51.880;12.630;2024-03-06T13:38:50;6.90;;;2.40;;
74967;SDS011;63523;51.880;12.630;2024-03-06T13:41:16;5.93;;;2.22;;
74967;SDS011;63523;51.880;12.630;2024-03-06T13:43:41;6.27;;;2.50;;
74967;SDS011;63523;51.880;12.630;2024-03-06T13:46:06;5.67;;;2.20;;
74967;SDS011;63523;51.880;12.630;2024-03-06T13:48:32;6.57;;;2.20;;
74967;SDS011;63523;51.880;12.630;2024-03-06T13:50:57;5.57;;;2.27;;
74967;SDS011;63523;51.880;12.630;2024-03-06T13:53:22;5.90;;;1.97;;
74967;SDS011;63523;51.880;12.630;2024-03-06T13:55:47;6.20;;;2.20;;
74967;SDS011;63523;51.880;12.630;2024-03-06T13:58:13;8.40;;;2.67;;
74967;SDS011;63523;51.880;12.630;2024-03-06T14:00:38;5.90;;;2.27;;
74967;SDS011;63523;51.880;12.630;2024-03-06T14:03:03;6.93;;;2.27;;
74967;SDS011;63523;51.880;12.630;2024-03-06T14:05:29;6.20;;;2.38;;
74967;SDS011;63523;51.880;12.630;2024-03-06T14:07:54;7.57;;;2.63;;
74967;SDS011;63523;51.880;12.630;2024-03-06T14:10:20;6.10;;;2.30;;
74967;SDS011;63523;51.880;12.630;2024-03-06T14:12:46;6.50;;;2.27;;
74967;SDS011;63523;51.880;12.630;2024-03-06T14:15:12;7.88;;;2.50;;
74967;SDS011;63523;51.880;12.630;2024-03-06T14:17:37;7.07;;;2.60;;
74967;SDS011;63523;51.880;12.630;2024-03-06T14:20:03;6.27;;;2.33;;
74967;SDS011;63523;51.880;12.630;2024-03-06T14:22:29;8.45;;;2.78;;
74967;SDS011;63523;51.880;12.630;2024-03-06T14:24:54;6.60;;;2.47;;